createdAt,value
2023-02-22T00:00:44.308Z,13.57
2023-02-22T00:03:16.233Z,11.43
2023-02-22T00:05:46.962Z,11.95
2023-02-22T00:08:15.169Z,10.40
2023-02-22T00:10:41.608Z,12.90
2023-02-22T00:13:10.722Z,10.48
2023-02-22T00:15:37.480Z,10.05
2023-02-22T00:18:05.388Z,12.10
2023-02-22T00:20:31.900Z,11.55
2023-02-22T00:23:01.446Z,10.80
2023-02-22T00:25:28.002Z,10.70
2023-02-22T00:27:54.962Z,11.02
2023-02-22T00:30:26.719Z,12.20
2023-02-22T00:32:56.014Z,11.35
2023-02-22T00:35:26.101Z,9.90
2023-02-22T00:37:55.637Z,10.85
2023-02-22T00:40:30.475Z,11.65
2023-02-22T00:42:58.439Z,12.38
2023-02-22T00:45:27.539Z,11.40
2023-02-22T00:47:57.378Z,9.73
2023-02-22T00:50:26.742Z,10.50
2023-02-22T00:52:53.797Z,9.68
2023-02-22T00:55:31.867Z,11.52
2023-02-22T00:57:59.322Z,10.82
2023-02-22T01:00:31.952Z,10.90
2023-02-22T01:02:59.230Z,9.95
2023-02-22T01:05:28.599Z,9.30
2023-02-22T01:07:57.180Z,9.90
2023-02-22T01:10:25.947Z,13.77
2023-02-22T01:12:52.785Z,9.50
2023-02-22T01:15:24.055Z,12.20
2023-02-22T01:17:53.655Z,10.27
2023-02-22T01:20:25.942Z,9.93
2023-02-22T01:22:54.528Z,11.60
2023-02-22T01:25:23.817Z,10.20
2023-02-22T01:27:51.326Z,10.75
2023-02-22T01:30:21.821Z,11.60
2023-02-22T01:32:48.394Z,13.48
2023-02-22T01:35:18.444Z,11.57
2023-02-22T01:37:45.668Z,10.33
2023-02-22T01:40:20.524Z,11.45
2023-02-22T01:42:55.374Z,12.48
2023-02-22T01:45:30.923Z,12.35
2023-02-22T01:48:04.969Z,11.50
2023-02-22T01:50:35.515Z,10.23
2023-02-22T01:53:03.372Z,14.05
2023-02-22T01:55:31.719Z,11.40
2023-02-22T01:57:58.261Z,12.63
2023-02-22T02:00:27.682Z,11.18
2023-02-22T02:03:06.354Z,11.67
2023-02-22T02:05:36.102Z,14.27
2023-02-22T02:08:14.516Z,13.20
2023-02-22T02:10:42.758Z,12.90
2023-02-22T02:13:10.161Z,14.20
2023-02-22T02:15:37.024Z,11.03
2023-02-22T02:18:10.799Z,11.88
2023-02-22T02:20:57.192Z,10.75
2023-02-22T02:23:45.193Z,11.13
2023-02-22T02:26:27.490Z,12.10
2023-02-22T02:29:05.824Z,12.03
2023-02-22T02:31:59.414Z,14.18
2023-02-22T02:34:40.578Z,13.18
2023-02-22T02:37:33.091Z,12.13
2023-02-22T02:40:12.545Z,11.82
2023-02-22T02:42:51.418Z,15.10
2023-02-22T02:45:26.304Z,16.20
2023-02-22T02:47:59.946Z,14.48
2023-02-22T02:50:32.041Z,13.65
2023-02-22T02:53:04.095Z,15.60
2023-02-22T02:55:32.507Z,12.13
2023-02-22T02:58:00.242Z,15.75
2023-02-22T03:00:32.502Z,13.70
2023-02-22T03:03:33.366Z,16.05
2023-02-22T03:06:16.881Z,12.73
2023-02-22T03:09:13.957Z,13.33
2023-02-22T03:12:02.228Z,12.63
2023-02-22T03:14:43.734Z,15.52
2023-02-22T03:17:45.987Z,14.32
2023-02-22T03:20:21.102Z,16.35
2023-02-22T03:23:24.725Z,14.73
2023-02-22T03:26:01.290Z,16.60
2023-02-22T03:28:30.126Z,17.08
2023-02-22T03:31:27.684Z,14.75
2023-02-22T03:34:00.777Z,19.50
2023-02-22T03:36:38.957Z,27.40
2023-02-22T03:39:09.930Z,18.15
2023-02-22T03:41:39.007Z,22.63
2023-02-22T03:44:09.460Z,23.42
2023-02-22T03:46:38.930Z,60.22
2023-02-22T03:49:12.722Z,48.70
2023-02-22T03:51:39.637Z,52.72
2023-02-22T03:54:07.596Z,55.60
2023-02-22T03:56:47.282Z,63.72
2023-02-22T03:59:14.631Z,61.83
2023-02-22T04:01:41.030Z,70.50
2023-02-22T04:04:07.746Z,81.05
2023-02-22T04:06:34.307Z,24.30
2023-02-22T04:09:03.695Z,33.17
2023-02-22T04:11:30.063Z,20.90
2023-02-22T04:13:57.221Z,33.53
2023-02-22T04:16:23.662Z,31.30
2023-02-22T04:18:50.141Z,31.42
2023-02-22T04:21:16.837Z,23.15
2023-02-22T04:23:43.340Z,46.13
2023-02-22T04:26:09.828Z,17.57
2023-02-22T04:28:36.208Z,22.77
2023-02-22T04:31:02.664Z,23.63
2023-02-22T04:33:29.086Z,20.00
2023-02-22T04:35:57.672Z,16.90
2023-02-22T04:38:26.022Z,18.67
2023-02-22T04:40:53.601Z,16.50
2023-02-22T04:43:20.346Z,17.30
2023-02-22T04:45:46.750Z,16.58
2023-02-22T04:48:13.200Z,19.30
2023-02-22T04:50:40.507Z,40.80
2023-02-22T04:53:06.853Z,19.15
2023-02-22T04:55:34.229Z,31.70
2023-02-22T04:58:00.750Z,22.52
2023-02-22T05:00:27.476Z,30.50
2023-02-22T05:02:53.916Z,20.43
2023-02-22T05:05:21.975Z,23.15
2023-02-22T05:07:49.557Z,22.45
2023-02-22T05:10:16.617Z,36.58
2023-02-22T05:12:43.032Z,22.08
2023-02-22T05:15:10.423Z,21.13
2023-02-22T05:17:37.267Z,20.60
2023-02-22T05:20:04.578Z,22.70
2023-02-22T05:22:31.021Z,19.75
2023-02-22T05:24:57.445Z,22.30
2023-02-22T05:27:24.046Z,18.73
2023-02-22T05:29:50.488Z,19.05
2023-02-22T05:32:16.940Z,21.75
2023-02-22T05:34:43.528Z,32.95
2023-02-22T05:37:09.993Z,96.97
2023-02-22T05:39:37.084Z,30.90
2023-02-22T05:42:03.691Z,30.60
2023-02-22T05:44:30.812Z,20.00
2023-02-22T05:46:57.307Z,23.83
2023-02-22T05:49:23.841Z,27.92
2023-02-22T05:51:50.515Z,34.17
2023-02-22T05:54:16.979Z,33.03
2023-02-22T05:56:43.449Z,35.33
2023-02-22T05:59:09.873Z,38.22
2023-02-22T06:01:36.338Z,37.05
2023-02-22T06:04:03.171Z,54.40
2023-02-22T06:06:30.031Z,43.10
2023-02-22T06:08:56.565Z,49.53
2023-02-22T06:11:23.034Z,32.50
2023-02-22T06:13:51.501Z,53.03
2023-02-22T06:16:18.710Z,60.93
2023-02-22T06:18:45.224Z,62.20
2023-02-22T06:21:11.844Z,79.97
2023-02-22T06:23:38.646Z,84.13
2023-02-22T06:26:05.657Z,86.63
2023-02-22T06:28:32.023Z,114.10
2023-02-22T06:30:58.461Z,116.43
2023-02-22T06:33:24.863Z,81.90
2023-02-22T06:35:51.487Z,96.95
2023-02-22T06:38:22.377Z,126.03
2023-02-22T06:40:48.758Z,159.73
2023-02-22T06:43:15.174Z,68.18
2023-02-22T06:45:41.610Z,103.38
2023-02-22T06:48:09.093Z,94.18
2023-02-22T06:50:36.089Z,123.25
2023-02-22T06:53:03.170Z,87.22
2023-02-22T06:55:31.913Z,87.23
2023-02-22T06:57:59.555Z,72.00
2023-02-22T07:00:27.420Z,61.92
2023-02-22T07:02:54.488Z,78.18
2023-02-22T07:05:22.802Z,81.43
2023-02-22T07:07:52.629Z,115.50
2023-02-22T07:10:21.269Z,72.93
2023-02-22T07:12:48.882Z,53.92
2023-02-22T07:15:18.155Z,57.95
2023-02-22T07:17:48.633Z,34.97
2023-02-22T07:20:15.286Z,87.67
2023-02-22T07:22:41.738Z,69.32
2023-02-22T07:25:12.836Z,63.40
2023-02-22T07:27:41.533Z,62.75
2023-02-22T07:30:17.205Z,133.82
2023-02-22T07:32:44.817Z,49.47
2023-02-22T07:35:22.950Z,60.97
2023-02-22T07:37:49.480Z,55.20
2023-02-22T07:40:17.953Z,51.42
2023-02-22T07:43:02.469Z,36.53
2023-02-22T07:45:34.563Z,42.87
2023-02-22T07:48:03.610Z,40.80
2023-02-22T07:50:32.259Z,69.43
2023-02-22T07:53:03.246Z,47.67
2023-02-22T07:55:32.425Z,37.88
2023-02-22T07:58:01.513Z,42.37
2023-02-22T08:00:30.618Z,45.13
2023-02-22T08:02:57.806Z,67.05
2023-02-22T08:05:26.484Z,47.22
2023-02-22T08:07:53.266Z,72.38
2023-02-22T08:10:22.346Z,68.90
2023-02-22T08:12:49.593Z,39.28
2023-02-22T08:15:21.789Z,74.57
2023-02-22T08:17:48.272Z,38.55
2023-02-22T08:20:14.959Z,58.05
2023-02-22T08:22:44.712Z,60.23
2023-02-22T08:25:12.130Z,70.88
2023-02-22T08:27:38.654Z,106.53
2023-02-22T08:30:06.183Z,77.97
2023-02-22T08:32:32.845Z,117.93
2023-02-22T08:34:59.484Z,68.00
2023-02-22T08:37:25.995Z,119.88
2023-02-22T08:39:53.897Z,100.40
2023-02-22T08:42:20.395Z,91.40
2023-02-22T08:44:46.949Z,105.35
2023-02-22T08:47:13.824Z,136.43
2023-02-22T08:49:40.253Z,69.30
2023-02-22T08:52:06.611Z,104.47
2023-02-22T08:54:32.994Z,82.68
2023-02-22T08:56:59.664Z,47.83
2023-02-22T08:59:26.124Z,80.20
2023-02-22T09:01:52.633Z,45.20
2023-02-22T09:04:19.084Z,99.25
2023-02-22T09:06:51.691Z,85.93
2023-02-22T09:09:21.325Z,60.67
2023-02-22T09:11:50.045Z,23.20
2023-02-22T09:14:18.069Z,41.72
2023-02-22T09:16:45.524Z,51.25
2023-02-22T09:19:12.550Z,58.67
2023-02-22T09:21:40.214Z,43.35
2023-02-22T09:24:11.008Z,56.20
2023-02-22T09:26:39.388Z,51.35
2023-02-22T09:29:09.648Z,42.45
2023-02-22T09:31:38.216Z,29.13
2023-02-22T09:34:13.608Z,13.63
2023-02-22T09:36:41.382Z,17.93
2023-02-22T09:39:09.402Z,21.15
2023-02-22T09:41:47.819Z,10.30
2023-02-22T09:44:20.893Z,10.25
2023-02-22T09:46:49.044Z,14.23
2023-02-22T09:49:15.552Z,10.60
2023-02-22T09:52:04.011Z,10.52
2023-02-22T09:54:43.269Z,12.27
2023-02-22T09:57:17.935Z,9.32
2023-02-22T09:59:56.742Z,8.45
2023-02-22T10:02:41.397Z,9.40
2023-02-22T10:05:17.607Z,9.57
2023-02-22T10:07:51.648Z,10.48
2023-02-22T10:10:20.967Z,11.65
2023-02-22T10:12:58.879Z,11.65
2023-02-22T10:15:45.652Z,10.57
2023-02-22T10:18:36.345Z,10.25
2023-02-22T10:21:36.711Z,11.13
2023-02-22T10:24:45.517Z,11.00
2023-02-22T10:27:20.210Z,10.40
2023-02-22T10:29:53.620Z,10.83
2023-02-22T10:32:31.670Z,11.32
2023-02-22T10:35:00.538Z,11.45
2023-02-22T10:37:33.829Z,10.48
2023-02-22T10:40:13.774Z,11.32
2023-02-22T10:42:40.168Z,9.80
2023-02-22T10:45:20.814Z,20.85
2023-02-22T10:47:47.430Z,11.35
2023-02-22T10:50:15.567Z,9.32
2023-02-22T10:52:42.043Z,11.07
2023-02-22T10:55:15.959Z,9.50
2023-02-22T10:57:46.294Z,12.13
2023-02-22T11:00:26.348Z,10.52
2023-02-22T11:02:57.006Z,9.82
2023-02-22T11:05:31.463Z,10.55
2023-02-22T11:08:14.948Z,10.50
2023-02-22T11:10:43.350Z,14.52
2023-02-22T11:13:53.138Z,13.88
2023-02-22T11:16:28.584Z,14.63
2023-02-22T11:19:06.556Z,16.52
2023-02-22T11:21:33.789Z,15.50
2023-02-22T11:24:10.219Z,12.20
2023-02-22T11:26:49.242Z,12.90
2023-02-22T11:29:31.808Z,12.45
2023-02-22T11:32:00.982Z,17.20
2023-02-22T11:34:39.909Z,16.07
2023-02-22T11:37:34.519Z,15.70
2023-02-22T11:40:05.631Z,15.80
2023-02-22T11:42:32.136Z,16.60
2023-02-22T11:45:17.231Z,13.00
2023-02-22T11:47:49.866Z,13.70
2023-02-22T11:50:48.795Z,15.25
2023-02-22T11:53:26.296Z,14.55
2023-02-22T11:56:37.701Z,13.57
2023-02-22T11:59:21.068Z,15.48
2023-02-22T12:02:08.606Z,15.30
2023-02-22T12:04:44.171Z,12.95
2023-02-22T12:07:19.732Z,14.23
2023-02-22T12:10:18.274Z,13.43
2023-02-22T12:13:27.106Z,14.40
2023-02-22T12:16:35.557Z,14.03
2023-02-22T12:19:20.116Z,14.38
2023-02-22T12:21:52.996Z,15.25
2023-02-22T12:24:23.926Z,20.30
2023-02-22T12:26:56.487Z,14.30
2023-02-22T12:29:26.146Z,16.00
2023-02-22T12:32:01.752Z,15.90
2023-02-22T12:34:28.259Z,17.30
2023-02-22T12:37:13.131Z,16.27
2023-02-22T12:39:58.322Z,14.68
2023-02-22T12:42:29.230Z,17.87
2023-02-22T12:45:08.288Z,19.08
2023-02-22T12:47:47.931Z,16.05
2023-02-22T12:50:23.439Z,15.73
2023-02-22T12:52:59.689Z,16.15
2023-02-22T12:55:38.319Z,15.80
2023-02-22T12:58:18.267Z,15.98
2023-02-22T13:01:05.965Z,15.85
2023-02-22T13:03:37.476Z,15.30
2023-02-22T13:06:22.046Z,18.05
2023-02-22T13:09:17.925Z,16.23
2023-02-22T13:12:16.333Z,17.58
2023-02-22T13:15:09.309Z,18.25
2023-02-22T13:17:38.575Z,18.33
2023-02-22T13:20:29.203Z,18.60
2023-02-22T13:23:14.315Z,19.30
2023-02-22T13:26:08.076Z,17.27
2023-02-22T13:28:46.957Z,16.02
2023-02-22T13:31:22.863Z,18.08
2023-02-22T13:34:01.056Z,16.52
2023-02-22T13:36:39.726Z,16.70
2023-02-22T13:39:44.073Z,16.52
2023-02-22T13:42:38.612Z,18.75
2023-02-22T13:45:27.477Z,21.35
2023-02-22T13:48:07.553Z,16.48
2023-02-22T13:50:58.341Z,18.00
2023-02-22T13:53:55.937Z,19.23
2023-02-22T13:56:24.949Z,16.90
2023-02-22T13:59:18.591Z,17.52
2023-02-22T14:01:48.060Z,18.48
2023-02-22T14:04:26.866Z,16.30
2023-02-22T14:07:01.257Z,18.75
2023-02-22T14:09:46.612Z,17.40
2023-02-22T14:12:35.350Z,16.27
2023-02-22T14:15:27.735Z,15.55
2023-02-22T14:18:09.542Z,16.27
2023-02-22T14:20:38.202Z,16.23
2023-02-22T14:23:25.967Z,16.70
2023-02-22T14:25:55.581Z,17.17
2023-02-22T14:28:46.307Z,21.60
2023-02-22T14:31:34.570Z,16.37
2023-02-22T14:34:11.732Z,18.00
2023-02-22T14:36:40.908Z,14.40
2023-02-22T14:39:35.784Z,16.35
2023-02-22T14:42:17.739Z,16.23
2023-02-22T14:45:42.343Z,17.43
2023-02-22T14:48:44.855Z,17.27
2023-02-22T14:51:26.962Z,17.00
2023-02-22T14:54:01.049Z,16.40
2023-02-22T14:56:41.125Z,16.58
2023-02-22T14:59:18.543Z,17.37
2023-02-22T15:02:09.621Z,16.90
2023-02-22T15:04:37.818Z,19.55
2023-02-22T15:07:28.244Z,19.35
2023-02-22T15:10:20.575Z,19.60
2023-02-22T15:13:09.579Z,19.50
2023-02-22T15:15:40.868Z,18.38
2023-02-22T15:18:19.176Z,18.48
2023-02-22T15:20:57.649Z,16.15
2023-02-22T15:23:38.846Z,18.35
2023-02-22T15:26:05.717Z,16.40
2023-02-22T15:28:38.380Z,14.82
2023-02-22T15:31:16.799Z,16.23
2023-02-22T15:33:46.962Z,14.80
2023-02-22T15:36:16.809Z,16.75
2023-02-22T15:38:51.360Z,14.97
2023-02-22T15:41:27.795Z,20.23
2023-02-22T15:44:26.981Z,16.77
2023-02-22T15:46:58.950Z,18.13
2023-02-22T15:49:25.785Z,18.27
2023-02-22T15:52:05.130Z,16.23
2023-02-22T15:54:39.525Z,15.30
2023-02-22T15:57:06.317Z,15.15
2023-02-22T15:59:35.117Z,17.38
2023-02-22T16:02:01.851Z,16.58
2023-02-22T16:04:30.893Z,16.37
2023-02-22T16:07:16.813Z,17.55
2023-02-22T16:09:51.424Z,16.75
2023-02-22T16:12:24.263Z,18.10
2023-02-22T16:14:54.300Z,19.42
2023-02-22T16:17:37.217Z,19.43
2023-02-22T16:20:19.228Z,19.25
2023-02-22T16:22:49.908Z,17.63
2023-02-22T16:25:19.106Z,18.45
2023-02-22T16:27:50.003Z,18.85
2023-02-22T16:30:34.735Z,29.83
2023-02-22T16:33:16.723Z,21.70
2023-02-22T16:35:52.327Z,16.52
2023-02-22T16:38:19.327Z,19.60
2023-02-22T16:40:52.240Z,17.27
2023-02-22T16:43:22.664Z,17.30
2023-02-22T16:45:49.352Z,17.65
2023-02-22T16:48:19.641Z,19.02
2023-02-22T16:50:47.290Z,16.98
2023-02-22T16:53:15.091Z,19.48
2023-02-22T16:55:44.685Z,16.40
2023-02-22T16:58:16.119Z,16.25
2023-02-22T17:00:44.728Z,19.40
2023-02-22T17:03:18.391Z,20.65
2023-02-22T17:05:45.087Z,19.02
2023-02-22T17:08:11.751Z,19.87
2023-02-22T17:10:38.525Z,18.95
2023-02-22T17:13:22.201Z,18.10
2023-02-22T17:15:50.765Z,17.83
2023-02-22T17:18:22.749Z,18.65
2023-02-22T17:20:50.952Z,17.70
2023-02-22T17:23:17.906Z,17.73
2023-02-22T17:25:56.672Z,17.05
2023-02-22T17:28:24.992Z,18.08
2023-02-22T17:30:53.578Z,24.23
2023-02-22T17:33:27.105Z,20.57
2023-02-22T17:35:55.828Z,25.10
2023-02-22T17:38:23.005Z,19.48
2023-02-22T17:40:54.759Z,17.85
2023-02-22T17:43:22.208Z,28.42
2023-02-22T17:45:49.481Z,19.00
2023-02-22T17:48:19.403Z,24.17
2023-02-22T17:50:49.331Z,24.10
2023-02-22T17:53:18.274Z,17.77
2023-02-22T17:55:44.861Z,16.95
2023-02-22T17:58:14.874Z,20.07
2023-02-22T18:00:44.627Z,16.38
2023-02-22T18:03:16.042Z,16.15
2023-02-22T18:05:46.249Z,14.65
2023-02-22T18:08:14.179Z,20.35
2023-02-22T18:10:44.704Z,12.93
2023-02-22T18:13:17.780Z,21.05
2023-02-22T18:15:45.781Z,16.73
2023-02-22T18:18:13.147Z,20.20
2023-02-22T18:20:46.707Z,24.83
2023-02-22T18:23:16.050Z,27.00
2023-02-22T18:26:07.579Z,19.67
2023-02-22T18:28:37.355Z,21.80
2023-02-22T18:31:14.546Z,15.80
2023-02-22T18:33:45.717Z,17.48
2023-02-22T18:36:14.179Z,19.03
2023-02-22T18:38:44.719Z,15.40
2023-02-22T18:41:14.335Z,15.57
2023-02-22T18:43:41.496Z,16.00
2023-02-22T18:46:13.631Z,16.83
2023-02-22T18:48:40.617Z,20.17
2023-02-22T18:51:10.502Z,14.43
2023-02-22T18:53:40.133Z,22.17
2023-02-22T18:56:15.283Z,18.63
2023-02-22T18:58:43.350Z,21.15
2023-02-22T19:01:16.764Z,18.00
2023-02-22T19:03:43.549Z,19.75
2023-02-22T19:06:10.484Z,16.30
2023-02-22T19:08:41.147Z,18.10
2023-02-22T19:11:10.655Z,17.70
2023-02-22T19:13:38.045Z,23.00
2023-02-22T19:16:07.207Z,30.58
2023-02-22T19:18:34.430Z,20.73
2023-02-22T19:21:03.613Z,31.02
2023-02-22T19:23:34.445Z,28.88
2023-02-22T19:26:02.926Z,38.27
2023-02-22T19:28:34.062Z,31.25
2023-02-22T19:31:33.477Z,28.08
2023-02-22T19:34:11.131Z,30.25
2023-02-22T19:36:39.394Z,27.08
2023-02-22T19:39:05.894Z,17.03
2023-02-22T19:41:32.642Z,21.13
2023-02-22T19:43:59.445Z,19.45
2023-02-22T19:46:25.881Z,23.33
2023-02-22T19:48:55.260Z,25.25
2023-02-22T19:51:25.445Z,30.10
2023-02-22T19:53:53.032Z,28.00
2023-02-22T19:56:26.830Z,26.13
2023-02-22T19:58:55.387Z,18.95
2023-02-22T20:01:32.897Z,19.67
2023-02-22T20:04:03.609Z,19.73
2023-02-22T20:06:42.244Z,18.63
2023-02-22T20:09:12.571Z,16.63
2023-02-22T20:11:39.033Z,19.77
2023-02-22T20:14:06.476Z,19.02
2023-02-22T20:16:34.688Z,21.63
2023-02-22T20:19:01.419Z,19.90
2023-02-22T20:21:34.504Z,26.92
2023-02-22T20:24:03.758Z,22.42
2023-02-22T20:26:32.454Z,21.08
2023-02-22T20:28:59.813Z,21.97
2023-02-22T20:31:29.217Z,20.33
2023-02-22T20:33:58.255Z,23.35
2023-02-22T20:36:25.907Z,28.25
2023-02-22T20:39:02.786Z,32.50
2023-02-22T20:41:32.338Z,27.77
2023-02-22T20:44:01.525Z,25.58
2023-02-22T20:46:31.651Z,26.67
2023-02-22T20:49:04.495Z,30.60
2023-02-22T20:51:31.048Z,27.75
2023-02-22T20:54:00.010Z,23.13
2023-02-22T20:56:29.466Z,20.42
2023-02-22T20:58:57.687Z,20.58
2023-02-22T21:01:24.604Z,18.65
2023-02-22T21:03:51.608Z,19.08
2023-02-22T21:06:21.311Z,21.83
2023-02-22T21:08:54.013Z,23.67
2023-02-22T21:11:21.945Z,29.45
2023-02-22T21:13:48.593Z,22.80
2023-02-22T21:16:18.790Z,19.23
2023-02-22T21:18:45.423Z,17.87
2023-02-22T21:21:12.642Z,18.88
2023-02-22T21:23:42.664Z,17.05
2023-02-22T21:26:18.755Z,21.88
2023-02-22T21:28:51.366Z,17.70
2023-02-22T21:31:20.637Z,17.80
2023-02-22T21:33:50.599Z,21.27
2023-02-22T21:36:18.775Z,18.77
2023-02-22T21:38:49.704Z,20.30
2023-02-22T21:41:17.389Z,22.92
2023-02-22T21:43:48.828Z,23.70
2023-02-22T21:46:15.970Z,24.05
2023-02-22T21:48:45.349Z,19.83
2023-02-22T21:51:14.173Z,20.33
2023-02-22T21:53:49.863Z,21.88
2023-02-22T21:56:22.643Z,20.47
2023-02-22T21:58:59.279Z,25.02
2023-02-22T22:01:33.932Z,20.23
2023-02-22T22:04:02.737Z,21.50
2023-02-22T22:06:31.345Z,24.48
2023-02-22T22:09:00.127Z,21.70
2023-02-22T22:11:27.537Z,21.65
2023-02-22T22:13:57.634Z,19.85
2023-02-22T22:16:27.142Z,22.00
2023-02-22T22:18:57.586Z,18.20
2023-02-22T22:21:24.963Z,19.27
2023-02-22T22:23:54.512Z,20.15
2023-02-22T22:26:24.836Z,17.67
2023-02-22T22:28:54.567Z,20.52
2023-02-22T22:31:23.711Z,19.98
2023-02-22T22:33:50.707Z,19.37
2023-02-22T22:36:19.579Z,19.70
2023-02-22T22:38:48.931Z,20.52
2023-02-22T22:41:19.279Z,22.00
2023-02-22T22:43:46.552Z,15.90
2023-02-22T22:46:16.461Z,17.83
2023-02-22T22:48:46.692Z,16.95
2023-02-22T22:51:18.104Z,18.83
2023-02-22T22:53:46.939Z,19.33
2023-02-22T22:56:26.020Z,22.10
2023-02-22T22:58:55.376Z,21.77
2023-02-22T23:01:28.052Z,18.00
2023-02-22T23:03:59.291Z,22.15
2023-02-22T23:06:42.187Z,21.00
2023-02-22T23:09:18.509Z,22.38
2023-02-22T23:11:56.283Z,22.97
2023-02-22T23:14:31.113Z,20.50
2023-02-22T23:17:03.150Z,20.10
2023-02-22T23:19:35.654Z,20.08
2023-02-22T23:22:05.637Z,20.23
2023-02-22T23:24:36.101Z,20.50
2023-02-22T23:27:07.176Z,20.90
2023-02-22T23:29:37.817Z,20.67
2023-02-22T23:32:06.297Z,18.77
2023-02-22T23:34:38.581Z,20.30
2023-02-22T23:37:09.713Z,19.27
2023-02-22T23:39:36.221Z,22.73
2023-02-22T23:42:03.839Z,20.33
2023-02-22T23:44:30.468Z,21.02
2023-02-22T23:46:56.943Z,23.20
2023-02-22T23:49:37.860Z,19.83
2023-02-22T23:52:08.349Z,19.55
2023-02-22T23:54:36.692Z,24.52
2023-02-22T23:57:05.374Z,21.23
2023-02-22T23:59:33.430Z,22.52
